sensor_id;sensor_type;location;lat;lon;timestamp;temperature;humidity
23122;DHT22;11730;51.248;22.534;2023-02-28T00:06:26;-1.10;84.10
23122;DHT22;11730;51.248;22.534;2023-02-28T00:08:54;-1.20;84.40
23122;DHT22;11730;51.248;22.534;2023-02-28T00:16:21;-1.30;81.50
23122;DHT22;11730;51.248;22.534;2023-02-28T00:18:49;-1.50;83.00
23122;DHT22;11730;51.248;22.534;2023-02-28T00:21:17;-1.60;82.70
23122;DHT22;11730;51.248;22.534;2023-02-28T00:23:45;-0.70;85.50
23122;DHT22;11730;51.248;22.534;2023-02-28T00:26:12;-1.40;87.00
23122;DHT22;11730;51.248;22.534;2023-02-28T00:31:06;-1.50;85.70
23122;DHT22;11730;51.248;22.534;2023-02-28T00:36:02;-1.60;83.10
23122;DHT22;11730;51.248;22.534;2023-02-28T00:40:57;-1.50;87.50
23122;DHT22;11730;51.248;22.534;2023-02-28T00:43:25;-1.40;84.80
23122;DHT22;11730;51.248;22.534;2023-02-28T00:48:19;-1.40;87.80
23122;DHT22;11730;51.248;22.534;2023-02-28T00:50:48;-1.60;84.40
23122;DHT22;11730;51.248;22.534;2023-02-28T00:58:10;-1.90;87.20
23122;DHT22;11730;51.248;22.534;2023-02-28T01:03:04;-1.50;87.00
23122;DHT22;11730;51.248;22.534;2023-02-28T01:10:27;-1.70;86.20
23122;DHT22;11730;51.248;22.534;2023-02-28T01:12:57;-1.80;89.60
23122;DHT22;11730;51.248;22.534;2023-02-28T01:20:19;-1.80;90.60
23122;DHT22;11730;51.248;22.534;2023-02-28T01:27:40;-1.80;91.00
23122;DHT22;11730;51.248;22.534;2023-02-28T01:30:08;-1.80;88.80
23122;DHT22;11730;51.248;22.534;2023-02-28T01:35:03;-1.70;89.60
23122;DHT22;11730;51.248;22.534;2023-02-28T01:37:30;-1.90;91.30
23122;DHT22;11730;51.248;22.534;2023-02-28T01:44:59;-2.10;91.50
23122;DHT22;11730;51.248;22.534;2023-02-28T01:47:39;-2.10;90.20
23122;DHT22;11730;51.248;22.534;2023-02-28T01:50:11;-2.10;90.60
23122;DHT22;11730;51.248;22.534;2023-02-28T01:52:40;-1.00;91.00
23122;DHT22;11730;51.248;22.534;2023-02-28T01:55:11;-2.30;92.40
23122;DHT22;11730;51.248;22.534;2023-02-28T01:57:49;-2.20;90.60
23122;DHT22;11730;51.248;22.534;2023-02-28T02:00:20;-2.20;90.90
23122;DHT22;11730;51.248;22.534;2023-02-28T02:02:50;-2.20;91.20
23122;DHT22;11730;51.248;22.534;2023-02-28T02:05:20;-2.20;91.30
23122;DHT22;11730;51.248;22.534;2023-02-28T02:07:50;-2.20;91.10
23122;DHT22;11730;51.248;22.534;2023-02-28T02:13:08;-2.00;93.10
23122;DHT22;11730;51.248;22.534;2023-02-28T02:32:16;-2.50;93.80
23122;DHT22;11730;51.248;22.534;2023-02-28T02:35:01;-2.20;92.30
23122;DHT22;11730;51.248;22.534;2023-02-28T02:37:57;-2.20;93.90
23122;DHT22;11730;51.248;22.534;2023-02-28T02:40:33;-2.20;92.20
23122;DHT22;11730;51.248;22.534;2023-02-28T02:46:13;-2.30;92.10
23122;DHT22;11730;51.248;22.534;2023-02-28T02:48:43;-2.40;92.90
23122;DHT22;11730;51.248;22.534;2023-02-28T02:51:15;-2.30;92.40
23122;DHT22;11730;51.248;22.534;2023-02-28T02:53:49;-2.20;94.80
23122;DHT22;11730;51.248;22.534;2023-02-28T02:56:23;-2.20;92.60
23122;DHT22;11730;51.248;22.534;2023-02-28T02:58:51;-2.30;94.20
23122;DHT22;11730;51.248;22.534;2023-02-28T03:01:22;-2.00;92.20
23122;DHT22;11730;51.248;22.534;2023-02-28T03:04:05;-1.90;91.90
23122;DHT22;11730;51.248;22.534;2023-02-28T03:11:29;-2.40;92.80
23122;DHT22;11730;51.248;22.534;2023-02-28T03:24:27;-2.50;94.80
23122;DHT22;11730;51.248;22.534;2023-02-28T03:27:06;-2.40;94.20
23122;DHT22;11730;51.248;22.534;2023-02-28T03:29:37;-2.40;95.90
23122;DHT22;11730;51.248;22.534;2023-02-28T03:34:36;-2.30;94.30
23122;DHT22;11730;51.248;22.534;2023-02-28T03:37:11;-2.20;96.00
23122;DHT22;11730;51.248;22.534;2023-02-28T03:40:09;-2.30;95.90
23122;DHT22;11730;51.248;22.534;2023-02-28T03:42:42;-2.40;94.90
23122;DHT22;11730;51.248;22.534;2023-02-28T03:47:59;-2.30;96.40
23122;DHT22;11730;51.248;22.534;2023-02-28T03:53:20;-2.60;94.90
23122;DHT22;11730;51.248;22.534;2023-02-28T03:56:01;-2.40;95.10
23122;DHT22;11730;51.248;22.534;2023-02-28T03:58:41;-2.60;94.90
23122;DHT22;11730;51.248;22.534;2023-02-28T04:01:12;-2.60;95.10
23122;DHT22;11730;51.248;22.534;2023-02-28T04:06:20;-2.60;97.30
23122;DHT22;11730;51.248;22.534;2023-02-28T04:11:17;-2.70;97.30
23122;DHT22;11730;51.248;22.534;2023-02-28T04:13:45;-2.80;98.00
23122;DHT22;11730;51.248;22.534;2023-02-28T04:21:34;-2.10;97.40
23122;DHT22;11730;51.248;22.534;2023-02-28T04:24:02;-2.70;97.20
23122;DHT22;11730;51.248;22.534;2023-02-28T04:26:35;-2.70;97.50
23122;DHT22;11730;51.248;22.534;2023-02-28T04:29:04;-2.60;97.90
23122;DHT22;11730;51.248;22.534;2023-02-28T04:31:31;-2.60;99.90
23122;DHT22;11730;51.248;22.534;2023-02-28T04:34:00;-2.60;97.80
23122;DHT22;11730;51.248;22.534;2023-02-28T04:38:54;-2.50;98.00
23122;DHT22;11730;51.248;22.534;2023-02-28T04:43:51;-2.60;96.70
23122;DHT22;11730;51.248;22.534;2023-02-28T04:46:19;-2.60;97.40
23122;DHT22;11730;51.248;22.534;2023-02-28T04:51:17;-2.50;98.90
23122;DHT22;11730;51.248;22.534;2023-02-28T04:56:15;-2.60;96.80
23122;DHT22;11730;51.248;22.534;2023-02-28T05:06:17;-2.60;98.30
23122;DHT22;11730;51.248;22.534;2023-02-28T05:08:44;-2.60;98.50
23122;DHT22;11730;51.248;22.534;2023-02-28T05:11:17;-2.40;97.00
23122;DHT22;11730;51.248;22.534;2023-02-28T05:16:12;-2.40;96.90
23122;DHT22;11730;51.248;22.534;2023-02-28T05:21:22;-2.40;96.80
23122;DHT22;11730;51.248;22.534;2023-02-28T05:26:18;-2.80;98.70
23122;DHT22;11730;51.248;22.534;2023-02-28T05:31:13;-2.50;97.90
23122;DHT22;11730;51.248;22.534;2023-02-28T05:41:11;-2.30;96.90
23122;DHT22;11730;51.248;22.534;2023-02-28T05:46:10;-2.00;97.70
23122;DHT22;11730;51.248;22.534;2023-02-28T05:48:38;-2.10;98.30
23122;DHT22;11730;51.248;22.534;2023-02-28T05:51:06;-2.10;98.60
23122;DHT22;11730;51.248;22.534;2023-02-28T05:53:34;-1.80;98.60
23122;DHT22;11730;51.248;22.534;2023-02-28T05:58:29;-1.60;97.70
23122;DHT22;11730;51.248;22.534;2023-02-28T06:00:58;-1.50;97.20
23122;DHT22;11730;51.248;22.534;2023-02-28T06:03:26;-1.50;96.90
23122;DHT22;11730;51.248;22.534;2023-02-28T06:05:54;-1.10;96.10
23122;DHT22;11730;51.248;22.534;2023-02-28T06:08:21;-0.60;95.30
23122;DHT22;11730;51.248;22.534;2023-02-28T06:10:48;-0.80;96.10
23122;DHT22;11730;51.248;22.534;2023-02-28T06:13:15;-0.90;94.50
23122;DHT22;11730;51.248;22.534;2023-02-28T06:18:09;-0.40;94.30
23122;DHT22;11730;51.248;22.534;2023-02-28T06:20:36;-0.20;93.00
23122;DHT22;11730;51.248;22.534;2023-02-28T06:23:03;0.20;92.90
23122;DHT22;11730;51.248;22.534;2023-02-28T06:25:30;0.40;92.20
23122;DHT22;11730;51.248;22.534;2023-02-28T06:27:57;0.20;91.50
23122;DHT22;11730;51.248;22.534;2023-02-28T06:30:23;0.50;91.50
23122;DHT22;11730;51.248;22.534;2023-02-28T06:32:54;0.70;91.40
23122;DHT22;11730;51.248;22.534;2023-02-28T06:35:21;1.30;88.10
23122;DHT22;11730;51.248;22.534;2023-02-28T06:37:49;0.90;86.80
23122;DHT22;11730;51.248;22.534;2023-02-28T06:42:43;0.20;89.60
23122;DHT22;11730;51.248;22.534;2023-02-28T06:45:11;-0.20;90.10
23122;DHT22;11730;51.248;22.534;2023-02-28T06:47:39;-0.30;90.40
23122;DHT22;11730;51.248;22.534;2023-02-28T06:50:10;0.60;88.50
23122;DHT22;11730;51.248;22.534;2023-02-28T06:52:38;1.10;84.70
23122;DHT22;11730;51.248;22.534;2023-02-28T06:55:06;0.90;87.20
23122;DHT22;11730;51.248;22.534;2023-02-28T06:57:35;1.20;87.50
23122;DHT22;11730;51.248;22.534;2023-02-28T07:00:08;1.60;86.10
23122;DHT22;11730;51.248;22.534;2023-02-28T07:02:36;1.40;87.60
23122;DHT22;11730;51.248;22.534;2023-02-28T07:05:05;1.70;85.30
23122;DHT22;11730;51.248;22.534;2023-02-28T07:07:32;1.70;83.30
23122;DHT22;11730;51.248;22.534;2023-02-28T07:10:00;1.00;84.40
23122;DHT22;11730;51.248;22.534;2023-02-28T07:12:27;1.30;86.30
23122;DHT22;11730;51.248;22.534;2023-02-28T07:14:54;1.60;87.90
23122;DHT22;11730;51.248;22.534;2023-02-28T07:17:22;2.10;84.70
23122;DHT22;11730;51.248;22.534;2023-02-28T07:19:49;2.40;81.90
23122;DHT22;11730;51.248;22.534;2023-02-28T07:22:16;2.40;81.70
23122;DHT22;11730;51.248;22.534;2023-02-28T07:24:43;2.60;79.30
23122;DHT22;11730;51.248;22.534;2023-02-28T07:27:10;2.70;79.70
23122;DHT22;11730;51.248;22.534;2023-02-28T07:29:37;3.70;78.70
23122;DHT22;11730;51.248;22.534;2023-02-28T07:32:04;2.90;77.10
23122;DHT22;11730;51.248;22.534;2023-02-28T07:34:32;3.00;78.40
23122;DHT22;11730;51.248;22.534;2023-02-28T07:36:58;3.60;75.10
23122;DHT22;11730;51.248;22.534;2023-02-28T07:39:26;3.80;72.90
23122;DHT22;11730;51.248;22.534;2023-02-28T07:41:53;3.10;74.80
23122;DHT22;11730;51.248;22.534;2023-02-28T07:44:20;3.90;77.00
23122;DHT22;11730;51.248;22.534;2023-02-28T07:46:47;3.60;73.00
23122;DHT22;11730;51.248;22.534;2023-02-28T07:49:14;4.70;70.30
23122;DHT22;11730;51.248;22.534;2023-02-28T07:51:41;4.60;70.70
23122;DHT22;11730;51.248;22.534;2023-02-28T07:54:08;4.40;69.10
23122;DHT22;11730;51.248;22.534;2023-02-28T07:56:35;4.90;67.50
23122;DHT22;11730;51.248;22.534;2023-02-28T07:59:02;4.60;68.50
23122;DHT22;11730;51.248;22.534;2023-02-28T08:01:29;5.70;66.90
23122;DHT22;11730;51.248;22.534;2023-02-28T08:03:57;5.90;62.60
23122;DHT22;11730;51.248;22.534;2023-02-28T08:06:24;7.20;60.00
23122;DHT22;11730;51.248;22.534;2023-02-28T08:08:53;8.20;57.00
23122;DHT22;11730;51.248;22.534;2023-02-28T08:11:20;7.40;58.50
23122;DHT22;11730;51.248;22.534;2023-02-28T08:13:46;7.20;56.50
23122;DHT22;11730;51.248;22.534;2023-02-28T08:16:14;5.90;59.90
23122;DHT22;11730;51.248;22.534;2023-02-28T08:18:44;6.60;60.20
23122;DHT22;11730;51.248;22.534;2023-02-28T08:21:11;5.60;60.00
23122;DHT22;11730;51.248;22.534;2023-02-28T08:23:38;6.50;60.70
23122;DHT22;11730;51.248;22.534;2023-02-28T08:26:06;5.30;63.60
23122;DHT22;11730;51.248;22.534;2023-02-28T08:28:33;5.60;62.70
23122;DHT22;11730;51.248;22.534;2023-02-28T08:31:01;5.90;63.00
23122;DHT22;11730;51.248;22.534;2023-02-28T08:33:28;5.90;61.90
23122;DHT22;11730;51.248;22.534;2023-02-28T08:35:56;6.30;59.60
23122;DHT22;11730;51.248;22.534;2023-02-28T08:38:23;6.40;59.80
23122;DHT22;11730;51.248;22.534;2023-02-28T08:40:57;7.60;55.90
23122;DHT22;11730;51.248;22.534;2023-02-28T08:43:25;6.10;59.40
23122;DHT22;11730;51.248;22.534;2023-02-28T08:45:53;6.50;58.80
23122;DHT22;11730;51.248;22.534;2023-02-28T08:48:20;7.20;57.00
23122;DHT22;11730;51.248;22.534;2023-02-28T08:51:01;6.00;59.60
23122;DHT22;11730;51.248;22.534;2023-02-28T08:53:33;6.20;57.20
23122;DHT22;11730;51.248;22.534;2023-02-28T08:56:05;6.40;54.90
23122;DHT22;11730;51.248;22.534;2023-02-28T08:58:33;5.70;57.00
23122;DHT22;11730;51.248;22.534;2023-02-28T09:01:06;5.20;59.50
23122;DHT22;11730;51.248;22.534;2023-02-28T09:03:34;4.40;60.80
23122;DHT22;11730;51.248;22.534;2023-02-28T09:06:01;5.40;60.60
23122;DHT22;11730;51.248;22.534;2023-02-28T09:08:30;4.60;61.60
23122;DHT22;11730;51.248;22.534;2023-02-28T09:10:57;4.50;60.80
23122;DHT22;11730;51.248;22.534;2023-02-28T09:13:28;4.30;61.70
23122;DHT22;11730;51.248;22.534;2023-02-28T09:16:00;4.30;62.00
23122;DHT22;11730;51.248;22.534;2023-02-28T09:18:28;4.30;61.20
23122;DHT22;11730;51.248;22.534;2023-02-28T09:20:55;4.50;62.70
23122;DHT22;11730;51.248;22.534;2023-02-28T09:23:22;4.40;62.70
23122;DHT22;11730;51.248;22.534;2023-02-28T09:25:54;5.20;60.70
23122;DHT22;11730;51.248;22.534;2023-02-28T09:28:22;4.60;61.30
23122;DHT22;11730;51.248;22.534;2023-02-28T09:30:51;4.20;61.90
23122;DHT22;11730;51.248;22.534;2023-02-28T09:38:17;5.70;61.40
23122;DHT22;11730;51.248;22.534;2023-02-28T09:40:54;5.90;61.60
23122;DHT22;11730;51.248;22.534;2023-02-28T09:43:25;5.70;57.70
23122;DHT22;11730;51.248;22.534;2023-02-28T09:46:00;6.70;57.10
23122;DHT22;11730;51.248;22.534;2023-02-28T09:48:33;5.80;57.80
23122;DHT22;11730;51.248;22.534;2023-02-28T09:51:15;6.20;57.10
23122;DHT22;11730;51.248;22.534;2023-02-28T09:53:49;5.30;56.70
23122;DHT22;11730;51.248;22.534;2023-02-28T09:56:40;4.90;57.70
23122;DHT22;11730;51.248;22.534;2023-02-28T10:07:22;5.40;60.50
23122;DHT22;11730;51.248;22.534;2023-02-28T10:09:55;5.10;60.70
23122;DHT22;11730;51.248;22.534;2023-02-28T10:12:24;4.50;60.30
23122;DHT22;11730;51.248;22.534;2023-02-28T10:14:52;4.60;62.10
23122;DHT22;11730;51.248;22.534;2023-02-28T10:17:26;5.60;60.40
23122;DHT22;11730;51.248;22.534;2023-02-28T10:20:09;5.80;57.00
23122;DHT22;11730;51.248;22.534;2023-02-28T10:22:58;6.60;58.30
23122;DHT22;11730;51.248;22.534;2023-02-28T10:25:36;5.80;56.50
23122;DHT22;11730;51.248;22.534;2023-02-28T10:28:12;5.90;56.80
23122;DHT22;11730;51.248;22.534;2023-02-28T10:30:46;6.40;57.00
23122;DHT22;11730;51.248;22.534;2023-02-28T10:33:28;6.60;55.20
23122;DHT22;11730;51.248;22.534;2023-02-28T10:35:55;6.20;56.70
23122;DHT22;11730;51.248;22.534;2023-02-28T10:38:25;6.20;57.70
23122;DHT22;11730;51.248;22.534;2023-02-28T10:41:06;6.60;54.80
23122;DHT22;11730;51.248;22.534;2023-02-28T10:43:35;6.60;55.70
23122;DHT22;11730;51.248;22.534;2023-02-28T10:46:05;7.10;56.10
23122;DHT22;11730;51.248;22.534;2023-02-28T10:48:45;7.50;53.30
23122;DHT22;11730;51.248;22.534;2023-02-28T10:51:16;7.70;53.20
23122;DHT22;11730;51.248;22.534;2023-02-28T10:53:49;8.50;54.30
23122;DHT22;11730;51.248;22.534;2023-02-28T10:56:32;9.20;51.50
23122;DHT22;11730;51.248;22.534;2023-02-28T10:59:28;10.10;50.10
23122;DHT22;11730;51.248;22.534;2023-02-28T11:01:55;10.80;47.20
23122;DHT22;11730;51.248;22.534;2023-02-28T11:07:16;8.80;49.30
23122;DHT22;11730;51.248;22.534;2023-02-28T11:09:48;8.50;50.30
23122;DHT22;11730;51.248;22.534;2023-02-28T11:12:23;7.30;49.80
23122;DHT22;11730;51.248;22.534;2023-02-28T11:14:56;9.90;50.20
23122;DHT22;11730;51.248;22.534;2023-02-28T11:17:28;9.90;47.00
23122;DHT22;11730;51.248;22.534;2023-02-28T11:19:59;9.40;51.10
23122;DHT22;11730;51.248;22.534;2023-02-28T11:22:37;10.40;48.00
23122;DHT22;11730;51.248;22.534;2023-02-28T11:25:37;11.30;48.30
23122;DHT22;11730;51.248;22.534;2023-02-28T11:33:47;10.60;44.80
23122;DHT22;11730;51.248;22.534;2023-02-28T11:36:25;9.60;47.10
23122;DHT22;11730;51.248;22.534;2023-02-28T11:38:59;9.60;47.90
23122;DHT22;11730;51.248;22.534;2023-02-28T11:42:09;10.60;47.90
23122;DHT22;11730;51.248;22.534;2023-02-28T11:47:14;9.30;48.00
23122;DHT22;11730;51.248;22.534;2023-02-28T11:50:03;10.00;48.80
23122;DHT22;11730;51.248;22.534;2023-02-28T12:03:42;11.70;45.90
23122;DHT22;11730;51.248;22.534;2023-02-28T12:17:58;12.90;42.50
23122;DHT22;11730;51.248;22.534;2023-02-28T12:20:38;14.50;39.30
23122;DHT22;11730;51.248;22.534;2023-02-28T12:23:25;15.10;38.90
23122;DHT22;11730;51.248;22.534;2023-02-28T12:31:43;12.10;40.80
23122;DHT22;11730;51.248;22.534;2023-02-28T12:34:20;11.70;43.40
23122;DHT22;11730;51.248;22.534;2023-02-28T12:36:52;12.30;42.60
23122;DHT22;11730;51.248;22.534;2023-02-28T12:39:29;13.20;42.00
23122;DHT22;11730;51.248;22.534;2023-02-28T12:42:17;13.30;42.00
23122;DHT22;11730;51.248;22.534;2023-02-28T12:44:51;11.60;41.00
23122;DHT22;11730;51.248;22.534;2023-02-28T12:47:19;11.50;42.20
23122;DHT22;11730;51.248;22.534;2023-02-28T12:50:07;11.50;43.10
23122;DHT22;11730;51.248;22.534;2023-02-28T12:55:51;12.30;42.20
23122;DHT22;11730;51.248;22.534;2023-02-28T12:58:36;12.30;41.30
23122;DHT22;11730;51.248;22.534;2023-02-28T13:07:31;12.00;42.20
23122;DHT22;11730;51.248;22.534;2023-02-28T13:10:04;10.30;43.00
23122;DHT22;11730;51.248;22.534;2023-02-28T13:12:34;9.70;46.00
23122;DHT22;11730;51.248;22.534;2023-02-28T13:15:22;10.40;45.60
23122;DHT22;11730;51.248;22.534;2023-02-28T13:17:54;11.30;43.80
23122;DHT22;11730;51.248;22.534;2023-02-28T13:20:47;10.90;44.80
23122;DHT22;11730;51.248;22.534;2023-02-28T13:31:21;9.90;45.70
23122;DHT22;11730;51.248;22.534;2023-02-28T13:38:51;8.60;48.10
23122;DHT22;11730;51.248;22.534;2023-02-28T13:41:45;9.30;49.90
23122;DHT22;11730;51.248;22.534;2023-02-28T13:44:19;10.30;47.70
23122;DHT22;11730;51.248;22.534;2023-02-28T14:02:27;10.70;45.90
23122;DHT22;11730;51.248;22.534;2023-02-28T14:05:20;10.20;46.60
23122;DHT22;11730;51.248;22.534;2023-02-28T14:07:54;9.40;46.90
23122;DHT22;11730;51.248;22.534;2023-02-28T14:10:31;9.60;48.20
23122;DHT22;11730;51.248;22.534;2023-02-28T14:13:01;9.90;48.10
23122;DHT22;11730;51.248;22.534;2023-02-28T14:18:33;9.40;47.10
23122;DHT22;11730;51.248;22.534;2023-02-28T14:21:23;8.30;49.30
23122;DHT22;11730;51.248;22.534;2023-02-28T14:26:53;9.50;47.80
23122;DHT22;11730;51.248;22.534;2023-02-28T14:37:14;8.00;50.10
23122;DHT22;11730;51.248;22.534;2023-02-28T14:39:43;7.20;50.90
23122;DHT22;11730;51.248;22.534;2023-02-28T14:42:35;6.90;51.60
23122;DHT22;11730;51.248;22.534;2023-02-28T14:45:02;6.20;53.00
23122;DHT22;11730;51.248;22.534;2023-02-28T14:47:34;6.10;53.40
23122;DHT22;11730;51.248;22.534;2023-02-28T14:50:04;6.20;53.50
23122;DHT22;11730;51.248;22.534;2023-02-28T14:52:32;6.50;52.50
23122;DHT22;11730;51.248;22.534;2023-02-28T14:55:14;5.90;53.80
23122;DHT22;11730;51.248;22.534;2023-02-28T14:57:51;5.80;54.60
23122;DHT22;11730;51.248;22.534;2023-02-28T15:00:27;5.30;54.70
23122;DHT22;11730;51.248;22.534;2023-02-28T15:02:56;5.30;55.90
23122;DHT22;11730;51.248;22.534;2023-02-28T15:08:10;5.90;55.70
23122;DHT22;11730;51.248;22.534;2023-02-28T15:10:40;5.60;55.50
23122;DHT22;11730;51.248;22.534;2023-02-28T15:13:13;5.30;55.90
23122;DHT22;11730;51.248;22.534;2023-02-28T15:15:56;5.50;55.60
23122;DHT22;11730;51.248;22.534;2023-02-28T15:21:07;5.00;57.40
23122;DHT22;11730;51.248;22.534;2023-02-28T15:23:36;4.60;58.30
23122;DHT22;11730;51.248;22.534;2023-02-28T15:26:04;4.50;59.00
23122;DHT22;11730;51.248;22.534;2023-02-28T15:28:32;4.40;59.30
23122;DHT22;11730;51.248;22.534;2023-02-28T15:31:01;4.30;59.50
23122;DHT22;11730;51.248;22.534;2023-02-28T15:33:33;4.50;59.20
23122;DHT22;11730;51.248;22.534;2023-02-28T15:36:09;3.90;59.80
23122;DHT22;11730;51.248;22.534;2023-02-28T15:41:27;3.40;62.60
23122;DHT22;11730;51.248;22.534;2023-02-28T15:46:57;3.60;63.40
23122;DHT22;11730;51.248;22.534;2023-02-28T15:51:53;3.30;63.50
23122;DHT22;11730;51.248;22.534;2023-02-28T15:54:34;2.80;64.90
23122;DHT22;11730;51.248;22.534;2023-02-28T15:57:05;2.60;65.70
23122;DHT22;11730;51.248;22.534;2023-02-28T15:59:36;2.60;66.10
23122;DHT22;11730;51.248;22.534;2023-02-28T16:02:18;2.30;66.60
23122;DHT22;11730;51.248;22.534;2023-02-28T16:04:59;2.60;67.60
23122;DHT22;11730;51.248;22.534;2023-02-28T16:07:27;2.20;67.70
23122;DHT22;11730;51.248;22.534;2023-02-28T16:12:31;2.00;69.10
23122;DHT22;11730;51.248;22.534;2023-02-28T16:15:02;1.90;69.50
23122;DHT22;11730;51.248;22.534;2023-02-28T16:17:36;2.00;69.40
23122;DHT22;11730;51.248;22.534;2023-02-28T16:20:14;1.90;70.60
23122;DHT22;11730;51.248;22.534;2023-02-28T16:25:14;1.80;71.10
23122;DHT22;11730;51.248;22.534;2023-02-28T16:27:42;1.80;71.20
23122;DHT22;11730;51.248;22.534;2023-02-28T16:30:17;1.90;71.60
23122;DHT22;11730;51.248;22.534;2023-02-28T16:32:45;1.60;72.40
23122;DHT22;11730;51.248;22.534;2023-02-28T16:35:11;1.90;72.30
23122;DHT22;11730;51.248;22.534;2023-02-28T16:40:14;1.70;72.20
23122;DHT22;11730;51.248;22.534;2023-02-28T16:45:20;1.30;73.20
23122;DHT22;11730;51.248;22.534;2023-02-28T16:47:48;1.70;74.10
23122;DHT22;11730;51.248;22.534;2023-02-28T16:50:20;1.40;74.20
23122;DHT22;11730;51.248;22.534;2023-02-28T16:52:48;1.40;73.60
23122;DHT22;11730;51.248;22.534;2023-02-28T16:55:16;1.20;74.50
23122;DHT22;11730;51.248;22.534;2023-02-28T17:00:13;1.40;75.90
23122;DHT22;11730;51.248;22.534;2023-02-28T17:05:12;1.40;74.90
23122;DHT22;11730;51.248;22.534;2023-02-28T17:10:26;1.10;76.20
23122;DHT22;11730;51.248;22.534;2023-02-28T17:12:53;1.00;77.70
23122;DHT22;11730;51.248;22.534;2023-02-28T17:22:53;0.70;78.90
23122;DHT22;11730;51.248;22.534;2023-02-28T17:27:48;0.60;79.90
23122;DHT22;11730;51.248;22.534;2023-02-28T17:30:17;0.70;79.80
23122;DHT22;11730;51.248;22.534;2023-02-28T17:32:44;0.40;80.50
23122;DHT22;11730;51.248;22.534;2023-02-28T17:35:11;0.80;79.80
23122;DHT22;11730;51.248;22.534;2023-02-28T17:37:38;0.60;80.00
23122;DHT22;11730;51.248;22.534;2023-02-28T17:40:13;0.80;81.50
23122;DHT22;11730;51.248;22.534;2023-02-28T17:45:09;0.40;81.70
23122;DHT22;11730;51.248;22.534;2023-02-28T17:47:37;0.60;82.30
23122;DHT22;11730;51.248;22.534;2023-02-28T17:52:31;0.40;83.90
23122;DHT22;11730;51.248;22.534;2023-02-28T17:55:03;0.80;85.20
23122;DHT22;11730;51.248;22.534;2023-02-28T17:57:31;1.00;84.20
23122;DHT22;11730;51.248;22.534;2023-02-28T18:02:25;0.10;85.90
23122;DHT22;11730;51.248;22.534;2023-02-28T18:09:50;0.10;84.60
23122;DHT22;11730;51.248;22.534;2023-02-28T18:12:17;0.50;85.40
23122;DHT22;11730;51.248;22.534;2023-02-28T18:19:41;0.50;85.60
23122;DHT22;11730;51.248;22.534;2023-02-28T18:24:35;0.00;87.80
23122;DHT22;11730;51.248;22.534;2023-02-28T18:27:03;0.00;85.60
23122;DHT22;11730;51.248;22.534;2023-02-28T18:29:29;0.10;86.00
23122;DHT22;11730;51.248;22.534;2023-02-28T18:34:27;-0.10;87.40
23122;DHT22;11730;51.248;22.534;2023-02-28T18:44:18;-0.30;89.10
23122;DHT22;11730;51.248;22.534;2023-02-28T18:46:48;-0.40;89.30
23122;DHT22;11730;51.248;22.534;2023-02-28T18:49:16;-0.10;87.00
23122;DHT22;11730;51.248;22.534;2023-02-28T18:54:14;-0.20;87.80
23122;DHT22;11730;51.248;22.534;2023-02-28T18:56:42;-0.60;89.10
23122;DHT22;11730;51.248;22.534;2023-02-28T18:59:10;-0.30;88.90
23122;DHT22;11730;51.248;22.534;2023-02-28T19:04:05;0.00;90.10
23122;DHT22;11730;51.248;22.534;2023-02-28T19:06:33;-0.30;89.30
23122;DHT22;11730;51.248;22.534;2023-02-28T19:09:01;-0.70;90.00
23122;DHT22;11730;51.248;22.534;2023-02-28T19:11:30;-0.60;90.00
23122;DHT22;11730;51.248;22.534;2023-02-28T19:16:25;-0.40;90.10
23122;DHT22;11730;51.248;22.534;2023-02-28T19:18:54;-0.50;90.80
23122;DHT22;11730;51.248;22.534;2023-02-28T19:21:22;-0.20;90.20
23122;DHT22;11730;51.248;22.534;2023-02-28T19:26:22;-0.40;90.00
23122;DHT22;11730;51.248;22.534;2023-02-28T19:28:49;-0.20;91.60
23122;DHT22;11730;51.248;22.534;2023-02-28T19:31:22;-0.30;90.50
23122;DHT22;11730;51.248;22.534;2023-02-28T19:36:19;-0.50;90.30
23122;DHT22;11730;51.248;22.534;2023-02-28T19:41:14;-0.50;90.00
23122;DHT22;11730;51.248;22.534;2023-02-28T19:46:10;-0.50;90.00
23122;DHT22;11730;51.248;22.534;2023-02-28T19:48:38;-0.60;90.20
23122;DHT22;11730;51.248;22.534;2023-02-28T19:51:10;-0.60;90.20
23122;DHT22;11730;51.248;22.534;2023-02-28T19:53:38;-0.50;90.50
23122;DHT22;11730;51.248;22.534;2023-02-28T19:56:06;-0.60;90.00
23122;DHT22;11730;51.248;22.534;2023-02-28T20:03:34;-0.60;90.50
23122;DHT22;11730;51.248;22.534;2023-02-28T20:06:04;-0.70;90.30
23122;DHT22;11730;51.248;22.534;2023-02-28T20:11:05;-0.80;90.40
23122;DHT22;11730;51.248;22.534;2023-02-28T20:13:33;-1.10;91.50
23122;DHT22;11730;51.248;22.534;2023-02-28T20:16:01;-0.80;90.50
23122;DHT22;11730;51.248;22.534;2023-02-28T20:20:58;-0.70;90.80
23122;DHT22;11730;51.248;22.534;2023-02-28T20:23:25;-0.80;90.90
23122;DHT22;11730;51.248;22.534;2023-02-28T20:25:52;-0.70;90.70
23122;DHT22;11730;51.248;22.534;2023-02-28T20:28:19;-0.80;91.40
23122;DHT22;11730;51.248;22.534;2023-02-28T20:30:46;-0.50;90.50
23122;DHT22;11730;51.248;22.534;2023-02-28T20:33:17;-0.70;89.40
23122;DHT22;11730;51.248;22.534;2023-02-28T20:35:45;-0.40;90.20
23122;DHT22;11730;51.248;22.534;2023-02-28T20:43:06;-0.60;90.30
23122;DHT22;11730;51.248;22.534;2023-02-28T20:45:36;-0.90;90.50
23122;DHT22;11730;51.248;22.534;2023-02-28T20:48:03;-1.00;90.70
23122;DHT22;11730;51.248;22.534;2023-02-28T20:55:24;-1.30;91.90
23122;DHT22;11730;51.248;22.534;2023-02-28T21:00:20;-0.80;91.30
23122;DHT22;11730;51.248;22.534;2023-02-28T21:02:48;-1.30;91.70
23122;DHT22;11730;51.248;22.534;2023-02-28T21:05:15;-1.10;91.60
23122;DHT22;11730;51.248;22.534;2023-02-28T21:10:10;-1.10;92.40
23122;DHT22;11730;51.248;22.534;2023-02-28T21:15:05;-1.30;92.20
23122;DHT22;11730;51.248;22.534;2023-02-28T21:29:48;-1.30;92.80
23122;DHT22;11730;51.248;22.534;2023-02-28T21:32:15;-1.40;93.10
23122;DHT22;11730;51.248;22.534;2023-02-28T21:37:10;-1.40;92.60
23122;DHT22;11730;51.248;22.534;2023-02-28T21:51:56;-1.70;93.30
23122;DHT22;11730;51.248;22.534;2023-02-28T21:56:50;-1.70;93.60
23122;DHT22;11730;51.248;22.534;2023-02-28T21:59:20;-1.20;93.10
23122;DHT22;11730;51.248;22.534;2023-02-28T22:01:48;-1.40;93.10
23122;DHT22;11730;51.248;22.534;2023-02-28T22:04:17;-1.50;93.10
23122;DHT22;11730;51.248;22.534;2023-02-28T22:06:52;-1.40;93.00
23122;DHT22;11730;51.248;22.534;2023-02-28T22:09:20;-0.60;93.90
23122;DHT22;11730;51.248;22.534;2023-02-28T22:11:47;-1.50;93.40
23122;DHT22;11730;51.248;22.534;2023-02-28T22:19:21;-1.40;94.20
23122;DHT22;11730;51.248;22.534;2023-02-28T22:21:48;-1.50;93.60
23122;DHT22;11730;51.248;22.534;2023-02-28T22:26:48;-1.60;93.70
23122;DHT22;11730;51.248;22.534;2023-02-28T22:31:42;-1.70;94.00
23122;DHT22;11730;51.248;22.534;2023-02-28T22:34:10;-1.20;94.80
23122;DHT22;11730;51.248;22.534;2023-02-28T22:36:39;-1.30;94.60